createdAt,value
2023-04-27T00:00:41.466Z,101231.50
2023-04-27T00:03:08.520Z,101242.31
2023-04-27T00:05:35.972Z,101237.16
2023-04-27T00:08:02.899Z,101228.44
2023-04-27T00:10:29.690Z,101233.91
2023-04-27T00:12:56.474Z,101235.59
2023-04-27T00:15:23.247Z,101233.41
2023-04-27T00:17:50.136Z,101231.72
2023-04-27T00:20:16.902Z,101238.69
2023-04-27T00:22:43.714Z,101236.25
2023-04-27T00:25:10.609Z,101236.66
2023-04-27T00:27:37.354Z,101237.69
2023-04-27T00:30:04.312Z,101239.72
2023-04-27T00:32:31.120Z,101235.72
2023-04-27T00:34:57.936Z,101235.72
2023-04-27T00:37:24.792Z,101245.81
2023-04-27T00:39:51.554Z,101232.31
2023-04-27T00:42:19.596Z,101238.19
2023-04-27T00:44:46.388Z,101233.88
2023-04-27T00:47:13.144Z,101234.72
2023-04-27T00:49:39.885Z,101239.78
2023-04-27T00:52:07.362Z,101239.22
2023-04-27T00:54:34.111Z,101243.03
2023-04-27T00:57:00.840Z,101243.47
2023-04-27T00:59:27.582Z,101248.94
2023-04-27T01:01:54.959Z,101240.56
2023-04-27T01:04:21.828Z,101239.13
2023-04-27T01:06:48.840Z,101235.78
2023-04-27T01:09:19.035Z,101240.28
2023-04-27T01:11:45.790Z,101246.63
2023-04-27T01:14:12.598Z,101242.59
2023-04-27T01:16:39.480Z,101241.75
2023-04-27T01:19:06.288Z,101238.97
2023-04-27T01:21:33.101Z,101247.97
2023-04-27T01:23:59.850Z,101247.69
2023-04-27T01:26:26.822Z,101245.38
2023-04-27T01:28:53.608Z,101249.34
2023-04-27T01:31:20.518Z,101250.19
2023-04-27T01:33:47.326Z,101251.59
2023-04-27T01:36:14.142Z,101256.06
2023-04-27T01:38:41.091Z,101257.66
2023-04-27T01:41:09.185Z,101258.88
2023-04-27T01:43:37.030Z,101251.34
2023-04-27T01:46:03.811Z,101257.91
2023-04-27T01:48:30.570Z,101262.72
2023-04-27T01:50:57.339Z,101264.44
2023-04-27T01:53:24.092Z,101267.47
2023-04-27T01:55:51.086Z,101263.84
2023-04-27T01:58:17.843Z,101263.81
2023-04-27T02:00:44.608Z,101255.53
2023-04-27T02:03:11.557Z,101256.06
2023-04-27T02:05:38.431Z,101265.84
2023-04-27T02:08:05.170Z,101265.66
2023-04-27T02:10:31.950Z,101263.34
2023-04-27T02:12:58.730Z,101266.94
2023-04-27T02:15:25.617Z,101268.78
2023-04-27T02:17:52.415Z,101276.84
2023-04-27T02:20:19.208Z,101273.84
2023-04-27T02:22:45.949Z,101277.38
2023-04-27T02:25:12.703Z,101283.72
2023-04-27T02:27:39.544Z,101284.97
2023-04-27T02:30:07.078Z,101285.81
2023-04-27T02:32:34.255Z,101282.38
2023-04-27T02:35:01.342Z,101283.38
2023-04-27T02:37:28.099Z,101294.81
2023-04-27T02:39:54.855Z,101293.72
2023-04-27T02:42:21.624Z,101293.72
2023-04-27T02:44:48.413Z,101293.03
2023-04-27T02:47:15.161Z,101300.44
2023-04-27T02:49:42.083Z,101306.78
2023-04-27T02:52:08.941Z,101302.50
2023-04-27T02:54:35.827Z,101302.88
2023-04-27T02:57:02.593Z,101313.00
2023-04-27T02:59:29.333Z,101299.28
2023-04-27T03:01:56.106Z,101303.72
2023-04-27T03:04:23.584Z,101306.53
2023-04-27T03:06:50.874Z,101313.88
2023-04-27T03:09:17.639Z,101309.41
2023-04-27T03:11:44.405Z,101316.00
2023-04-27T03:14:12.648Z,101317.47
2023-04-27T03:16:39.529Z,101315.16
2023-04-27T03:19:07.125Z,101327.19
2023-04-27T03:21:33.907Z,101318.91
2023-04-27T03:24:00.901Z,101323.97
2023-04-27T03:26:27.660Z,101323.13
2023-04-27T03:28:54.419Z,101322.44
2023-04-27T03:31:21.594Z,101323.28
2023-04-27T03:33:48.381Z,101325.16
2023-04-27T03:36:15.288Z,101327.44
2023-04-27T03:38:42.035Z,101331.88
2023-04-27T03:41:08.825Z,101329.75
2023-04-27T03:43:36.130Z,101326.13
2023-04-27T03:46:02.961Z,101338.13
2023-04-27T03:48:29.851Z,101331.34
2023-04-27T03:50:56.629Z,101340.03
2023-04-27T03:53:23.397Z,101330.03
2023-04-27T03:55:50.215Z,101334.88
2023-04-27T03:58:17.788Z,101342.09
2023-04-27T04:00:44.606Z,101342.72
2023-04-27T04:03:11.587Z,101341.19
2023-04-27T04:05:38.530Z,101344.97
2023-04-27T04:08:05.268Z,101335.59
2023-04-27T04:10:32.066Z,101335.53
2023-04-27T04:12:58.925Z,101335.13
2023-04-27T04:15:25.915Z,101337.88
2023-04-27T04:17:52.829Z,101331.22
2023-04-27T04:20:19.706Z,101336.31
2023-04-27T04:22:46.515Z,101348.56
2023-04-27T04:25:13.876Z,101345.16
2023-04-27T04:27:40.900Z,101349.38
2023-04-27T04:30:07.707Z,101351.47
2023-04-27T04:32:37.541Z,101345.94
2023-04-27T04:35:05.172Z,101347.84
2023-04-27T04:37:31.904Z,101349.72
2023-04-27T04:39:58.661Z,101350.50
2023-04-27T04:42:25.406Z,101341.16
2023-04-27T04:44:52.390Z,101341.41
2023-04-27T04:47:19.193Z,101338.66
2023-04-27T04:49:46.138Z,101340.31
2023-04-27T04:52:12.900Z,101343.84
2023-04-27T04:54:39.853Z,101345.38
2023-04-27T04:57:07.551Z,101352.75
2023-04-27T04:59:34.949Z,101343.72
2023-04-27T05:02:01.884Z,101346.97
2023-04-27T05:04:28.827Z,101354.75
2023-04-27T05:06:55.878Z,101354.66
2023-04-27T05:09:22.673Z,101359.53
2023-04-27T05:11:49.405Z,101367.16
2023-04-27T05:14:16.190Z,101365.28
2023-04-27T05:16:43.058Z,101355.75
2023-04-27T05:19:09.906Z,101363.59
2023-04-27T05:21:36.710Z,101376.06
2023-04-27T05:24:03.986Z,101371.59
2023-04-27T05:26:30.969Z,101379.22
2023-04-27T05:28:57.732Z,101381.50
2023-04-27T05:31:24.616Z,101377.69
2023-04-27T05:33:51.418Z,101382.75
2023-04-27T05:36:18.197Z,101391.59
2023-04-27T05:38:45.010Z,101379.13
2023-04-27T05:41:11.762Z,101390.75
2023-04-27T05:43:38.704Z,101393.69
2023-04-27T05:46:05.616Z,101395.97
2023-04-27T05:48:32.446Z,101396.56
2023-04-27T05:50:59.251Z,101388.16
2023-04-27T05:53:26.246Z,101388.72
2023-04-27T05:55:53.329Z,101391.31
2023-04-27T05:58:20.128Z,101396.34
2023-04-27T06:00:46.948Z,101404.06
2023-04-27T06:03:13.964Z,101400.56
2023-04-27T06:05:40.848Z,101395.06
2023-04-27T06:08:07.778Z,101409.25
2023-04-27T06:10:34.525Z,101404.84
2023-04-27T06:13:01.330Z,101408.22
2023-04-27T06:15:28.162Z,101409.72
2023-04-27T06:17:55.069Z,101410.75
2023-04-27T06:20:21.952Z,101415.22
2023-04-27T06:22:48.823Z,101412.00
2023-04-27T06:25:15.586Z,101412.19
2023-04-27T06:27:42.438Z,101413.88
2023-04-27T06:30:09.196Z,101420.44
2023-04-27T06:32:36.035Z,101422.75
2023-04-27T06:35:02.823Z,101428.47
2023-04-27T06:37:30.023Z,101423.78
2023-04-27T06:39:56.814Z,101429.28
2023-04-27T06:42:23.658Z,101428.84
2023-04-27T06:44:50.496Z,101436.59
2023-04-27T06:47:17.312Z,101440.00
2023-04-27T06:49:44.093Z,101423.94
2023-04-27T06:52:11.121Z,101439.28
2023-04-27T06:54:37.947Z,101430.31
2023-04-27T06:57:04.703Z,101439.84
2023-04-27T06:59:31.494Z,101432.09
2023-04-27T07:01:58.404Z,101431.69
2023-04-27T07:04:25.510Z,101432.56
2023-04-27T07:06:52.359Z,101438.28
2023-04-27T07:09:26.952Z,101439.13
2023-04-27T07:11:54.436Z,101434.91
2023-04-27T07:14:21.421Z,101444.19
2023-04-27T07:16:48.242Z,101440.78
2023-04-27T07:19:15.225Z,101450.53
2023-04-27T07:21:42.489Z,101446.72
2023-04-27T07:24:09.240Z,101450.94
2023-04-27T07:26:36.857Z,101432.25
2023-04-27T07:29:11.235Z,101443.91
2023-04-27T07:31:46.455Z,101440.53
2023-04-27T07:34:13.351Z,101442.44
2023-04-27T07:36:40.211Z,101440.38
2023-04-27T07:39:07.992Z,101446.88
2023-04-27T07:41:35.419Z,101449.41
2023-04-27T07:44:02.499Z,101449.94
2023-04-27T07:46:31.581Z,101444.38
2023-04-27T07:48:59.702Z,101449.56
2023-04-27T07:51:28.429Z,101454.50
2023-04-27T07:53:55.581Z,101447.34
2023-04-27T07:56:22.363Z,101455.16
2023-04-27T07:58:49.109Z,101448.88
2023-04-27T08:01:16.903Z,101454.38
2023-04-27T08:03:44.555Z,101456.72
2023-04-27T08:06:11.616Z,101455.41
2023-04-27T08:08:38.933Z,101457.94
2023-04-27T08:11:05.792Z,101456.88
2023-04-27T08:13:32.561Z,101452.00
2023-04-27T08:15:59.378Z,101457.69
2023-04-27T08:18:26.143Z,101453.03
2023-04-27T08:20:52.907Z,101456.47
2023-04-27T08:23:19.704Z,101458.53
2023-04-27T08:25:46.458Z,101457.69
2023-04-27T08:28:13.209Z,101456.00
2023-04-27T08:30:39.991Z,101464.22
2023-04-27T08:33:06.761Z,101452.69
2023-04-27T08:35:33.532Z,101456.91
2023-04-27T08:38:00.512Z,101450.44
2023-04-27T08:40:27.322Z,101457.06
2023-04-27T08:42:54.154Z,101450.25
2023-04-27T08:45:20.954Z,101451.16
2023-04-27T08:47:47.795Z,101454.75
2023-04-27T08:50:14.567Z,101445.47
2023-04-27T08:52:41.398Z,101444.84
2023-04-27T08:55:08.443Z,101447.19
2023-04-27T08:57:35.648Z,101451.19
2023-04-27T09:00:11.422Z,101453.09
2023-04-27T09:02:38.332Z,101446.31
2023-04-27T09:05:05.429Z,101440.34
2023-04-27T09:07:32.509Z,101440.53
2023-04-27T09:09:59.263Z,101439.91
2023-04-27T09:12:26.077Z,101439.91
2023-04-27T09:14:52.850Z,101436.50
2023-04-27T09:17:19.584Z,101439.81
2023-04-27T09:19:46.338Z,101437.34
2023-04-27T09:22:14.726Z,101442.38
2023-04-27T09:24:41.477Z,101431.66
2023-04-27T09:27:08.794Z,101442.28
2023-04-27T09:29:35.832Z,101423.34
2023-04-27T09:32:03.781Z,101433.06
2023-04-27T09:34:30.797Z,101430.78
2023-04-27T09:36:57.664Z,101429.38
2023-04-27T09:39:24.406Z,101421.75
2023-04-27T09:41:51.171Z,101422.19
2023-04-27T09:44:18.056Z,101425.16
2023-04-27T09:46:45.516Z,101420.50
2023-04-27T09:49:12.454Z,101416.25
2023-04-27T09:51:39.443Z,101429.34
2023-04-27T09:54:06.309Z,101428.31
2023-04-27T09:56:33.124Z,101422.09
2023-04-27T09:58:59.992Z,101422.53
2023-04-27T10:01:26.789Z,101426.34
2023-04-27T10:03:53.702Z,101415.75
2023-04-27T10:06:20.646Z,101422.94
2023-04-27T10:08:47.414Z,101422.31
2023-04-27T10:11:15.368Z,101426.78
2023-04-27T10:13:42.147Z,101432.53
2023-04-27T10:16:08.905Z,101435.25
2023-04-27T10:18:35.648Z,101428.84
2023-04-27T10:21:02.423Z,101433.06
2023-04-27T10:23:29.365Z,101437.13
2023-04-27T10:25:57.118Z,101434.44
2023-04-27T10:28:24.004Z,101437.03
2023-04-27T10:30:51.734Z,101432.78
2023-04-27T10:33:18.547Z,101423.91
2023-04-27T10:35:45.804Z,101425.16
2023-04-27T10:38:12.588Z,101431.25
2023-04-27T10:40:39.464Z,101431.28
2023-04-27T10:43:06.469Z,101437.00
2023-04-27T10:45:33.228Z,101430.63
2023-04-27T10:48:00.062Z,101437.34
2023-04-27T10:50:27.015Z,101433.34
2023-04-27T10:52:53.857Z,101432.28
2023-04-27T10:55:20.795Z,101429.09
2023-04-27T10:57:48.047Z,101432.16
2023-04-27T11:00:16.460Z,101428.00
2023-04-27T11:02:43.452Z,101435.31
2023-04-27T11:05:10.438Z,101441.53
2023-04-27T11:07:37.273Z,101429.25
2023-04-27T11:10:04.254Z,101430.94
2023-04-27T11:12:31.086Z,101428.47
2023-04-27T11:14:58.306Z,101429.81
2023-04-27T11:17:25.458Z,101420.94
2023-04-27T11:19:52.255Z,101421.78
2023-04-27T11:22:19.036Z,101420.72
2023-04-27T11:24:45.824Z,101425.56
2023-04-27T11:27:12.992Z,101427.69
2023-04-27T11:29:39.969Z,101433.59
2023-04-27T11:32:07.030Z,101422.97
2023-04-27T11:34:39.026Z,101423.81
2023-04-27T11:39:36.468Z,101426.09
2023-04-27T11:42:03.681Z,101422.28
2023-04-27T11:44:30.519Z,101432.63
2023-04-27T11:47:10.502Z,101429.13
2023-04-27T11:49:37.546Z,101419.59
2023-04-27T11:52:04.314Z,101424.81
2023-04-27T11:54:31.232Z,101414.84
2023-04-27T11:56:57.965Z,101430.13
2023-04-27T11:59:25.544Z,101420.03
2023-04-27T12:01:52.388Z,101422.59
2023-04-27T12:04:19.634Z,101421.38
2023-04-27T12:06:46.905Z,101417.75
2023-04-27T12:09:13.700Z,101417.75
2023-04-27T12:11:40.998Z,101423.88
2023-04-27T12:14:07.954Z,101426.81
2023-04-27T12:16:34.765Z,101426.81
2023-04-27T12:19:01.836Z,101429.31
2023-04-27T12:21:28.785Z,101425.50
2023-04-27T12:23:55.726Z,101427.59
2023-04-27T12:26:22.486Z,101423.78
2023-04-27T12:28:49.260Z,101424.38
2023-04-27T12:31:26.107Z,101415.19
2023-04-27T12:33:54.376Z,101424.22
2023-04-27T12:36:21.225Z,101422.91
2023-04-27T12:38:48.121Z,101415.06
2023-04-27T12:41:14.946Z,101405.09
2023-04-27T12:43:43.426Z,101416.03
2023-04-27T12:46:10.379Z,101409.91
2023-04-27T12:48:37.187Z,101402.72
2023-04-27T12:51:03.955Z,101411.19
2023-04-27T12:53:30.747Z,101410.38
2023-04-27T12:55:57.533Z,101409.94
2023-04-27T12:58:24.285Z,101405.22
2023-04-27T13:00:51.043Z,101412.00
2023-04-27T13:03:18.025Z,101407.28
2023-04-27T13:05:45.505Z,101410.25
2023-04-27T13:08:12.307Z,101411.94
2023-04-27T13:10:40.406Z,101413.19
2023-04-27T13:13:07.704Z,101413.16
2023-04-27T13:15:34.482Z,101410.75
2023-04-27T13:18:05.080Z,101407.00
2023-04-27T13:20:31.882Z,101389.84
2023-04-27T13:22:58.638Z,101395.78
2023-04-27T13:25:25.405Z,101405.84
2023-04-27T13:27:52.206Z,101403.31
2023-04-27T13:30:18.981Z,101397.84
2023-04-27T13:32:45.920Z,101399.38
2023-04-27T13:35:12.884Z,101404.44
2023-04-27T13:37:42.080Z,101397.22
2023-04-27T13:40:10.825Z,101392.53
2023-04-27T13:42:37.613Z,101388.94
2023-04-27T13:45:04.927Z,101396.75
2023-04-27T13:47:37.085Z,101394.59
2023-04-27T13:50:04.235Z,101386.97
2023-04-27T13:52:31.092Z,101389.28
2023-04-27T13:54:57.892Z,101389.03
2023-04-27T13:57:24.655Z,101392.81
2023-04-27T13:59:51.479Z,101393.47
2023-04-27T14:02:18.316Z,101394.34
2023-04-27T14:04:45.131Z,101389.28
2023-04-27T14:07:12.162Z,101388.63
2023-04-27T14:09:38.996Z,101382.69
2023-04-27T14:12:05.820Z,101392.03
2023-04-27T14:14:32.661Z,101393.19
2023-04-27T14:16:59.492Z,101386.19
2023-04-27T14:19:27.281Z,101391.72
2023-04-27T14:21:55.366Z,101389.41
2023-04-27T14:24:22.129Z,101392.97
2023-04-27T14:26:49.425Z,101384.94
2023-04-27T14:29:16.482Z,101388.03
2023-04-27T14:31:43.449Z,101380.84
2023-04-27T14:34:10.796Z,101380.63
2023-04-27T14:36:37.619Z,101369.59
2023-04-27T14:39:05.555Z,101375.06
2023-04-27T14:41:32.344Z,101377.41
2023-04-27T14:43:59.286Z,101378.03
2023-04-27T14:46:26.110Z,101379.66
2023-04-27T14:48:52.916Z,101384.19
2023-04-27T14:51:19.756Z,101381.06
2023-04-27T14:53:46.531Z,101384.13
2023-04-27T14:56:13.303Z,101382.84
2023-04-27T14:58:40.776Z,101375.19
2023-04-27T15:01:07.592Z,101380.91
2023-04-27T15:03:34.691Z,101383.06
2023-04-27T15:06:01.780Z,101375.88
2023-04-27T15:08:29.404Z,101372.25
2023-04-27T15:11:00.551Z,101370.56
2023-04-27T15:13:27.494Z,101368.44
2023-04-27T15:15:54.695Z,101371.97
2023-04-27T15:18:21.573Z,101373.47
2023-04-27T15:20:48.534Z,101373.41
2023-04-27T15:23:18.066Z,101365.56
2023-04-27T15:25:44.798Z,101365.16
2023-04-27T15:28:11.583Z,101362.81
2023-04-27T15:30:38.344Z,101356.00
2023-04-27T15:33:05.290Z,101363.97
2023-04-27T15:35:32.521Z,101351.22
2023-04-27T15:37:59.383Z,101362.22
2023-04-27T15:40:26.123Z,101357.28
2023-04-27T15:42:52.901Z,101361.91
2023-04-27T15:45:19.673Z,101360.38
2023-04-27T15:47:46.694Z,101353.03
2023-04-27T15:50:13.542Z,101342.63
2023-04-27T15:52:40.292Z,101352.78
2023-04-27T15:55:08.420Z,101338.41
2023-04-27T15:57:35.514Z,101344.72
2023-04-27T16:00:02.275Z,101342.56
2023-04-27T16:02:29.085Z,101343.00
2023-04-27T16:04:56.431Z,101341.25
2023-04-27T16:07:23.276Z,101340.81
2023-04-27T16:09:50.076Z,101348.63
2023-04-27T16:12:16.847Z,101345.00
2023-04-27T16:14:43.720Z,101338.84
2023-04-27T16:17:10.642Z,101345.81
2023-04-27T16:19:37.413Z,101343.03
2023-04-27T16:22:04.176Z,101336.50
2023-04-27T16:24:31.303Z,101331.78
2023-04-27T16:26:58.102Z,101329.00
2023-04-27T16:29:24.866Z,101322.34
2023-04-27T16:31:51.642Z,101321.50
2023-04-27T16:34:18.498Z,101318.75
2023-04-27T16:36:47.375Z,101315.97
2023-04-27T16:39:14.458Z,101315.50
2023-04-27T16:41:41.470Z,101315.50
2023-04-27T16:44:08.223Z,101315.88
2023-04-27T16:46:35.103Z,101312.03
2023-04-27T16:49:02.089Z,101316.63
2023-04-27T16:51:28.914Z,101315.16
2023-04-27T16:53:55.676Z,101313.63
2023-04-27T16:56:22.431Z,101315.75
2023-04-27T16:58:49.181Z,101304.56
2023-04-27T17:01:15.986Z,101305.13
2023-04-27T17:03:42.979Z,101306.88
2023-04-27T17:06:09.858Z,101301.25
2023-04-27T17:08:36.623Z,101310.91
2023-04-27T17:11:03.382Z,101315.13
2023-04-27T17:13:31.599Z,101318.53
2023-04-27T17:15:58.547Z,101317.25
2023-04-27T17:18:25.652Z,101321.88
2023-04-27T17:20:53.116Z,101328.59
2023-04-27T17:23:20.021Z,101317.13
2023-04-27T17:25:46.918Z,101323.91
2023-04-27T17:28:13.660Z,101321.53
2023-04-27T17:30:41.757Z,101317.69
2023-04-27T17:33:09.846Z,101318.09
2023-04-27T17:35:36.651Z,101314.94
2023-04-27T17:38:03.481Z,101319.50
2023-04-27T17:40:30.383Z,101322.59
2023-04-27T17:42:57.752Z,101328.00
2023-04-27T17:45:26.330Z,101320.28
2023-04-27T17:47:53.145Z,101323.78
2023-04-27T17:50:19.880Z,101329.06
2023-04-27T17:52:49.347Z,101331.22
2023-04-27T17:55:16.423Z,101325.69
2023-04-27T17:57:43.245Z,101331.22
2023-04-27T18:00:13.073Z,101329.31
2023-04-27T18:02:40.177Z,101327.81
2023-04-27T18:05:07.025Z,101331.16
2023-04-27T18:07:33.784Z,101330.72
2023-04-27T18:10:00.818Z,101331.06
2023-04-27T18:12:27.603Z,101328.06
2023-04-27T18:14:54.403Z,101329.31
2023-04-27T18:17:21.442Z,101331.22
2023-04-27T18:19:55.292Z,101324.63
2023-04-27T18:22:27.959Z,101331.63
2023-04-27T18:24:54.729Z,101330.03
2023-04-27T18:27:21.476Z,101331.00
2023-04-27T18:29:48.287Z,101327.56
2023-04-27T18:32:15.960Z,101326.00
2023-04-27T18:34:43.435Z,101321.47
2023-04-27T18:37:10.448Z,101322.69
2023-04-27T18:39:37.202Z,101316.44
2023-04-27T18:42:03.975Z,101321.06
2023-04-27T18:44:30.885Z,101314.31
2023-04-27T18:46:57.631Z,101322.34
2023-04-27T18:49:24.412Z,101319.34
2023-04-27T18:51:51.247Z,101323.78
2023-04-27T18:54:17.977Z,101324.81
2023-04-27T18:56:44.750Z,101325.22
2023-04-27T18:59:11.530Z,101324.28
2023-04-27T19:01:39.716Z,101324.72
2023-04-27T19:04:07.100Z,101326.34
2023-04-27T19:06:34.046Z,101328.91
2023-04-27T19:09:00.834Z,101328.06
2023-04-27T19:11:28.647Z,101325.47
2023-04-27T19:13:55.410Z,101333.56
2023-04-27T19:16:22.193Z,101328.84
2023-04-27T19:18:49.035Z,101333.03
2023-04-27T19:21:15.945Z,101325.91
2023-04-27T19:23:44.951Z,101327.13
2023-04-27T19:26:13.914Z,101325.22
2023-04-27T19:28:41.191Z,101334.06
2023-04-27T19:31:08.257Z,101340.00
2023-04-27T19:33:35.166Z,101338.41
2023-04-27T19:36:01.920Z,101335.88
2023-04-27T19:38:29.380Z,101336.31
2023-04-27T19:40:56.128Z,101337.53
2023-04-27T19:43:22.942Z,101337.78
2023-04-27T19:45:50.850Z,101346.22
2023-04-27T19:48:17.686Z,101345.56
2023-04-27T19:50:44.475Z,101347.22
2023-04-27T19:53:11.215Z,101347.22
2023-04-27T19:55:39.003Z,101344.66
2023-04-27T19:58:05.918Z,101339.09
2023-04-27T20:00:33.204Z,101342.47
2023-04-27T20:03:00.089Z,101336.53
2023-04-27T20:05:27.151Z,101341.81
2023-04-27T20:07:54.011Z,101339.47
2023-04-27T20:10:21.309Z,101331.69
2023-04-27T20:12:56.250Z,101331.34
2023-04-27T20:15:23.749Z,101317.34
2023-04-27T20:17:50.572Z,101328.38
2023-04-27T20:20:18.173Z,101327.84
2023-04-27T20:22:45.404Z,101314.88
2023-04-27T20:25:13.944Z,101318.53
2023-04-27T20:27:40.862Z,101318.53
2023-04-27T20:30:08.101Z,101319.81
2023-04-27T20:32:35.066Z,101316.00
2023-04-27T20:35:02.452Z,101323.56
2023-04-27T20:37:29.348Z,101314.69
2023-04-27T20:39:56.139Z,101316.56
2023-04-27T20:42:22.880Z,101313.56
2023-04-27T20:44:50.370Z,101313.13
2023-04-27T20:47:17.142Z,101311.81
2023-04-27T20:49:43.987Z,101306.50
2023-04-27T20:52:10.992Z,101317.28
2023-04-27T20:54:37.852Z,101313.63
2023-04-27T20:57:08.443Z,101312.38
2023-04-27T20:59:35.240Z,101319.91
2023-04-27T21:02:02.077Z,101315.31
2023-04-27T21:04:28.920Z,101314.84
2023-04-27T21:06:55.791Z,101311.66
2023-04-27T21:09:22.623Z,101314.50
2023-04-27T21:11:49.390Z,101315.81
2023-04-27T21:14:16.317Z,101306.03
2023-04-27T21:16:43.274Z,101312.94
2023-04-27T21:19:12.887Z,101305.66
2023-04-27T21:21:39.798Z,101310.50
2023-04-27T21:24:19.287Z,101303.69
2023-04-27T21:26:46.275Z,101303.28
2023-04-27T21:29:13.172Z,101303.69
2023-04-27T21:31:40.157Z,101308.34
2023-04-27T21:34:06.968Z,101307.88
2023-04-27T21:36:33.817Z,101312.94
2023-04-27T21:39:00.561Z,101303.56
2023-04-27T21:41:27.364Z,101307.38
2023-04-27T21:43:54.195Z,101313.69
2023-04-27T21:46:21.442Z,101316.38
2023-04-27T21:48:48.226Z,101312.41
2023-04-27T21:51:14.991Z,101315.72
2023-04-27T21:53:41.775Z,101320.63
2023-04-27T21:56:08.514Z,101305.13
2023-04-27T21:58:35.425Z,101310.63
2023-04-27T22:01:02.231Z,101299.03
2023-04-27T22:03:29.123Z,101302.97
2023-04-27T22:05:57.432Z,101304.22
2023-04-27T22:08:24.325Z,101300.28
2023-04-27T22:10:51.082Z,101298.88
2023-04-27T22:13:19.377Z,101299.72
2023-04-27T22:15:46.694Z,101300.75
2023-04-27T22:18:14.571Z,101302.03
2023-04-27T22:20:41.582Z,101293.97
2023-04-27T22:23:09.207Z,101291.38
2023-04-27T22:25:36.039Z,101294.72
2023-04-27T22:28:02.838Z,101296.03
2023-04-27T22:30:29.598Z,101296.44
2023-04-27T22:32:56.652Z,101291.69
2023-04-27T22:35:27.131Z,101301.41
2023-04-27T22:37:54.167Z,101300.09
2023-04-27T22:40:21.014Z,101297.13
2023-04-27T22:42:47.823Z,101295.84
2023-04-27T22:45:14.570Z,101286.09
2023-04-27T22:47:41.506Z,101293.25
2023-04-27T22:50:08.483Z,101287.66
2023-04-27T22:52:37.069Z,101277.41
2023-04-27T22:55:04.176Z,101277.38
2023-04-27T22:57:30.953Z,101276.53
2023-04-27T22:59:57.754Z,101278.72
2023-04-27T23:02:24.633Z,101264.84
2023-04-27T23:04:51.532Z,101265.66
2023-04-27T23:07:18.357Z,101260.38
2023-04-27T23:09:45.605Z,101254.63
2023-04-27T23:12:12.439Z,101254.41
2023-04-27T23:14:41.616Z,101253.94
2023-04-27T23:17:08.431Z,101256.22
2023-04-27T23:19:35.256Z,101254.72
2023-04-27T23:22:01.982Z,101250.28
2023-04-27T23:24:28.730Z,101249.88
2023-04-27T23:26:55.493Z,101254.91
2023-04-27T23:29:22.277Z,101248.50
2023-04-27T23:31:49.044Z,101243.81
2023-04-27T23:34:16.197Z,101246.31
2023-04-27T23:36:43.210Z,101250.31
2023-04-27T23:39:09.982Z,101245.25
2023-04-27T23:41:37.117Z,101242.16
2023-04-27T23:44:03.893Z,101238.38
2023-04-27T23:46:30.645Z,101229.16
2023-04-27T23:48:57.530Z,101225.91
2023-04-27T23:51:24.406Z,101236.66
2023-04-27T23:53:51.135Z,101233.38
2023-04-27T23:56:18.025Z,101224.63
2023-04-27T23:58:44.809Z,101215.59
